createdAt,value
2022-11-16T00:00:47.917Z,99848.81
2022-11-16T00:04:04.607Z,99849.34
2022-11-16T00:07:13.192Z,99832.84
2022-11-16T00:10:21.613Z,99840.81
2022-11-16T00:13:38.610Z,99830.75
2022-11-16T00:16:47.655Z,99823.28
2022-11-16T00:19:56.134Z,99826.50
2022-11-16T00:23:10.603Z,99831.00
2022-11-16T00:26:13.452Z,99825.91
2022-11-16T00:29:31.589Z,99837.09
2022-11-16T00:32:46.580Z,99818.44
2022-11-16T00:36:01.612Z,99823.47
2022-11-16T00:39:10.584Z,99820.00
2022-11-16T00:42:25.610Z,99811.47
2022-11-16T00:45:34.120Z,99805.09
2022-11-16T00:48:48.617Z,99784.53
2022-11-16T00:52:03.607Z,99778.44
2022-11-16T00:55:12.109Z,99782.16
2022-11-16T00:58:26.611Z,99784.31
2022-11-16T01:01:41.659Z,99786.97
2022-11-16T01:04:56.593Z,99779.50
2022-11-16T01:07:58.772Z,99770.97
2022-11-16T01:11:14.595Z,99778.44
2022-11-16T01:14:16.862Z,99772.00
2022-11-16T01:17:31.615Z,99755.03
2022-11-16T01:20:33.946Z,99759.81
2022-11-16T01:23:48.601Z,99755.50
2022-11-16T01:26:50.451Z,99748.00
2022-11-16T01:30:05.585Z,99737.84
2022-11-16T01:33:14.326Z,99742.63
2022-11-16T01:36:22.583Z,99731.97
2022-11-16T01:39:31.323Z,99733.56
2022-11-16T01:42:47.615Z,99731.16
2022-11-16T01:45:56.217Z,99720.50
2022-11-16T01:49:14.595Z,99715.41
2022-11-16T01:52:27.587Z,99713.81
2022-11-16T01:55:43.596Z,99700.81
2022-11-16T01:58:46.517Z,99700.53
2022-11-16T02:02:09.591Z,99698.44
2022-11-16T02:05:22.542Z,99683.53
2022-11-16T02:08:58.581Z,99689.94
2022-11-16T02:12:44.616Z,99681.34
2022-11-16T02:16:12.820Z,99681.84
2022-11-16T02:19:39.613Z,99673.59
2022-11-16T02:23:02.588Z,99675.16
2022-11-16T02:26:58.710Z,99672.78
2022-11-16T02:30:14.599Z,99674.91
2022-11-16T02:33:30.622Z,99663.94
2022-11-16T02:36:47.598Z,99658.59
2022-11-16T02:39:55.785Z,99657.31
2022-11-16T02:43:15.603Z,99659.16
2022-11-16T02:46:25.991Z,99656.50
2022-11-16T02:49:45.569Z,99648.75
2022-11-16T02:52:54.121Z,99646.09
2022-11-16T02:56:02.585Z,99640.44
2022-11-16T02:59:16.483Z,99639.38
2022-11-16T03:02:35.569Z,99626.81
2022-11-16T03:05:55.608Z,99627.06
2022-11-16T03:09:05.863Z,99633.97
2022-11-16T03:12:26.594Z,99627.34
2022-11-16T03:15:39.212Z,99627.63
2022-11-16T03:18:56.582Z,99615.91
2022-11-16T03:22:17.589Z,99615.59
2022-11-16T03:25:22.814Z,99612.94
2022-11-16T03:28:46.599Z,99608.97
2022-11-16T03:31:55.206Z,99607.88
2022-11-16T03:35:17.572Z,99606.53
2022-11-16T03:38:28.382Z,99598.78
2022-11-16T03:41:39.585Z,99594.56
2022-11-16T03:44:55.589Z,99598.78
2022-11-16T03:47:57.589Z,99592.09
2022-11-16T03:51:15.598Z,99593.69
2022-11-16T03:54:17.504Z,99587.28
2022-11-16T03:57:33.588Z,99582.22
2022-11-16T04:00:48.630Z,99575.88
2022-11-16T04:03:50.456Z,99578.81
2022-11-16T04:07:05.621Z,99577.81
2022-11-16T04:10:20.613Z,99573.47
2022-11-16T04:13:36.196Z,99571.06
2022-11-16T04:16:50.589Z,99555.06
2022-11-16T04:19:59.274Z,99553.69
2022-11-16T04:23:21.611Z,99560.59
2022-11-16T04:26:36.566Z,99549.94
2022-11-16T04:29:52.602Z,99544.59
2022-11-16T04:33:01.189Z,99544.09
2022-11-16T04:36:09.609Z,99539.41
2022-11-16T04:39:24.584Z,99548.53
2022-11-16T04:42:26.482Z,99549.56
2022-11-16T04:45:41.605Z,99539.47
2022-11-16T04:48:52.611Z,99533.56
2022-11-16T04:52:01.135Z,99529.28
2022-11-16T04:55:16.599Z,99537.84
2022-11-16T04:58:25.668Z,99529.81
2022-11-16T05:01:40.921Z,99523.91
2022-11-16T05:04:50.595Z,99528.94
2022-11-16T05:07:59.131Z,99528.16
2022-11-16T05:11:07.591Z,99530.81
2022-11-16T05:14:16.288Z,99533.78
2022-11-16T05:17:33.579Z,99524.41
2022-11-16T05:20:35.520Z,99528.66
2022-11-16T05:23:50.596Z,99522.25
2022-11-16T05:27:06.573Z,99519.38
2022-11-16T05:30:15.589Z,99522.59
2022-11-16T05:33:30.561Z,99514.38
2022-11-16T05:36:38.615Z,99508.25
2022-11-16T05:39:54.585Z,99502.69
2022-11-16T05:43:09.599Z,99501.03
2022-11-16T05:46:11.471Z,99497.81
2022-11-16T05:49:26.611Z,99494.94
2022-11-16T05:52:41.580Z,99487.78
2022-11-16T05:55:56.628Z,99487.69
2022-11-16T05:59:16.441Z,99481.81
2022-11-16T06:02:24.833Z,99478.84
2022-11-16T06:05:41.596Z,99480.13
2022-11-16T06:08:49.598Z,99483.09
2022-11-16T06:11:58.167Z,99470.94
2022-11-16T06:15:13.618Z,99473.50
2022-11-16T06:18:22.174Z,99476.69
2022-11-16T06:21:36.594Z,99484.13
2022-11-16T06:24:51.591Z,99482.53
2022-11-16T06:28:01.135Z,99480.94
2022-11-16T06:31:12.445Z,99484.91
2022-11-16T06:34:27.602Z,99483.31
2022-11-16T06:37:35.584Z,99477.72
2022-11-16T06:41:01.584Z,99481.19
2022-11-16T06:44:09.571Z,99477.34
2022-11-16T06:47:18.079Z,99476.56
2022-11-16T06:50:32.577Z,99465.06
2022-11-16T06:53:34.439Z,99462.94
2022-11-16T06:56:49.601Z,99460.09
2022-11-16T07:00:12.576Z,99462.22
2022-11-16T07:03:27.576Z,99447.81
2022-11-16T07:06:42.600Z,99452.84
2022-11-16T07:09:51.137Z,99447.50
2022-11-16T07:13:08.602Z,99447.22
2022-11-16T07:16:23.603Z,99447.72
2022-11-16T07:19:31.593Z,99446.84
2022-11-16T07:22:40.316Z,99446.81
2022-11-16T07:25:55.607Z,99443.56
2022-11-16T07:29:08.602Z,99435.41
2022-11-16T07:32:17.142Z,99433.81
2022-11-16T07:35:27.734Z,99431.72
2022-11-16T07:38:38.474Z,99431.44
2022-11-16T07:41:53.605Z,99437.06
2022-11-16T07:45:08.593Z,99431.72
2022-11-16T07:48:23.591Z,99424.16
2022-11-16T07:51:38.602Z,99431.84
2022-11-16T07:54:47.180Z,99429.50
2022-11-16T07:57:55.489Z,99421.97
2022-11-16T08:01:20.255Z,99421.78
2022-11-16T08:04:35.820Z,99409.22
2022-11-16T08:07:44.356Z,99411.09
2022-11-16T08:10:52.651Z,99415.28
2022-11-16T08:14:01.474Z,99406.19
2022-11-16T08:17:11.668Z,99419.25
2022-11-16T08:20:26.613Z,99401.06
2022-11-16T08:23:41.594Z,99408.00
2022-11-16T08:26:43.483Z,99414.69
2022-11-16T08:29:58.605Z,99414.91
2022-11-16T08:33:00.457Z,99409.38
2022-11-16T08:36:20.408Z,99401.28
2022-11-16T08:39:35.621Z,99404.63
2022-11-16T08:42:44.362Z,99400.09
2022-11-16T08:45:59.642Z,99404.06
2022-11-16T08:49:08.163Z,99399.22
2022-11-16T08:52:16.595Z,99403.75
2022-11-16T08:55:32.565Z,99389.34
2022-11-16T08:58:42.772Z,99398.13
2022-11-16T09:02:04.651Z,99389.13
2022-11-16T09:05:13.175Z,99385.00
2022-11-16T09:08:21.668Z,99387.28
2022-11-16T09:11:39.582Z,99386.47
2022-11-16T09:14:54.579Z,99386.69
2022-11-16T09:17:56.414Z,99371.44
2022-11-16T09:21:11.605Z,99390.34
2022-11-16T09:24:28.890Z,99379.97
2022-11-16T09:27:31.659Z,99388.25
2022-11-16T09:30:51.591Z,99379.75
2022-11-16T09:34:07.582Z,99388.00
2022-11-16T09:37:23.258Z,99379.69
2022-11-16T09:40:38.305Z,99373.16
2022-11-16T09:44:11.683Z,99368.31
2022-11-16T09:47:26.783Z,99358.81
2022-11-16T09:51:02.697Z,99350.31
2022-11-16T09:54:42.617Z,99353.47
2022-11-16T09:58:02.580Z,99353.78
2022-11-16T10:01:56.578Z,99357.34
2022-11-16T10:05:25.987Z,99354.59
2022-11-16T10:08:47.589Z,99338.03
2022-11-16T10:12:09.585Z,99335.38
2022-11-16T10:15:24.603Z,99322.00
2022-11-16T10:18:36.027Z,99323.00
2022-11-16T10:22:01.593Z,99315.78
2022-11-16T10:25:25.008Z,99306.28
2022-11-16T10:29:11.764Z,99304.19
2022-11-16T10:32:43.443Z,99303.59
2022-11-16T10:35:53.107Z,99305.38
2022-11-16T10:39:07.664Z,99296.56
2022-11-16T10:42:19.503Z,99286.88
2022-11-16T10:45:58.602Z,99291.87
2022-11-16T10:49:22.586Z,99286.75
2022-11-16T10:52:25.202Z,99278.25
2022-11-16T10:55:39.594Z,99279.84
2022-11-16T10:59:04.319Z,99276.69
2022-11-16T11:02:29.646Z,99273.53
2022-11-16T11:05:32.100Z,99265.19
2022-11-16T11:08:46.594Z,99249.97
2022-11-16T11:12:06.570Z,99249.72
2022-11-16T11:15:26.520Z,99241.69
2022-11-16T11:18:41.582Z,99238.25
2022-11-16T11:21:56.602Z,99234.78
2022-11-16T11:25:30.581Z,99224.88
2022-11-16T11:28:47.831Z,99227.75
2022-11-16T11:32:00.571Z,99220.78
2022-11-16T11:35:28.601Z,99222.38
2022-11-16T11:38:31.930Z,99217.03
2022-11-16T11:41:49.612Z,99214.97
2022-11-16T11:45:00.622Z,99220.03
2022-11-16T11:48:24.586Z,99214.38
2022-11-16T11:51:39.806Z,99207.63
2022-11-16T11:54:58.582Z,99202.59
2022-11-16T11:58:24.596Z,99190.31
2022-11-16T12:02:03.578Z,99189.03
2022-11-16T12:05:53.620Z,99194.44
2022-11-16T12:09:29.569Z,99199.78
2022-11-16T12:13:03.598Z,99192.41
2022-11-16T12:16:38.587Z,99183.56
2022-11-16T12:20:02.326Z,99180.78
2022-11-16T12:23:30.571Z,99183.16
2022-11-16T12:27:11.805Z,99187.69
2022-11-16T12:30:22.273Z,99186.41
2022-11-16T12:33:51.921Z,99182.19
2022-11-16T12:37:36.965Z,99180.59
2022-11-16T12:41:10.571Z,99176.84
2022-11-16T12:44:50.571Z,99179.03
2022-11-16T12:48:01.232Z,99173.69
2022-11-16T12:51:53.637Z,99168.03
2022-11-16T12:55:25.428Z,99160.59
2022-11-16T12:58:58.731Z,99168.94
2022-11-16T13:02:57.578Z,99157.66
2022-11-16T13:06:23.585Z,99159.03
2022-11-16T13:09:39.578Z,99160.13
2022-11-16T13:12:59.514Z,99157.28
2022-11-16T13:16:24.597Z,99157.28
2022-11-16T13:19:27.512Z,99153.97
2022-11-16T13:22:46.569Z,99153.88
2022-11-16T13:26:04.978Z,99159.22
2022-11-16T13:29:31.598Z,99149.16
2022-11-16T13:33:05.576Z,99152.91
2022-11-16T13:36:32.635Z,99151.31
2022-11-16T13:40:07.566Z,99154.59
2022-11-16T13:43:15.576Z,99150.53
2022-11-16T13:46:57.431Z,99151.94
2022-11-16T13:50:23.604Z,99150.34
2022-11-16T13:57:12.591Z,99145.00
2022-11-16T14:00:30.577Z,99138.56
2022-11-16T14:03:40.731Z,99142.03
2022-11-16T14:06:55.777Z,99137.47
2022-11-16T14:10:05.747Z,99132.13
2022-11-16T14:13:48.579Z,99133.72
2022-11-16T14:16:51.624Z,99129.44
2022-11-16T14:20:07.646Z,99131.03
2022-11-16T14:23:31.331Z,99129.94
2022-11-16T14:27:19.591Z,99115.47
2022-11-16T14:30:34.387Z,99115.47
2022-11-16T14:33:56.723Z,99117.06
2022-11-16T14:37:11.611Z,99110.75
2022-11-16T14:40:23.560Z,99114.03
2022-11-16T14:43:52.580Z,99116.72
2022-11-16T14:47:01.582Z,99116.22
2022-11-16T14:50:34.345Z,99116.22
2022-11-16T14:54:21.562Z,99112.75
2022-11-16T14:57:36.637Z,99104.44
2022-11-16T15:01:11.314Z,99110.25
2022-11-16T15:04:22.168Z,99101.44
2022-11-16T15:07:37.630Z,99090.75
2022-11-16T15:10:52.688Z,99101.16
2022-11-16T15:14:01.147Z,99092.94
2022-11-16T15:17:21.615Z,99096.06
2022-11-16T15:20:32.594Z,99098.12
2022-11-16T15:24:23.337Z,99100.91
2022-11-16T15:27:50.589Z,99088.66
2022-11-16T15:31:08.566Z,99085.63
2022-11-16T15:34:19.253Z,99083.72
2022-11-16T15:37:35.541Z,99082.16
2022-11-16T15:40:51.737Z,99085.63
2022-11-16T15:44:15.121Z,99087.66
2022-11-16T15:47:24.571Z,99082.31
2022-11-16T15:50:33.333Z,99085.00
2022-11-16T15:53:50.633Z,99076.97
2022-11-16T15:57:13.606Z,99081.03
2022-11-16T16:00:32.572Z,99085.25
2022-11-16T16:04:01.716Z,99079.59
2022-11-16T16:07:09.600Z,99075.16
2022-11-16T16:10:24.561Z,99072.94
2022-11-16T16:13:51.792Z,99072.50
2022-11-16T16:17:07.557Z,99069.81
2022-11-16T16:20:18.490Z,99061.03
2022-11-16T16:23:33.827Z,99068.44
2022-11-16T16:26:42.157Z,99072.66
2022-11-16T16:29:58.596Z,99071.28
2022-11-16T16:33:17.791Z,99067.62
2022-11-16T16:36:32.606Z,99068.44
2022-11-16T16:39:47.590Z,99075.06
2022-11-16T16:42:49.430Z,99076.44
2022-11-16T16:46:08.594Z,99068.12
2022-11-16T16:49:10.639Z,99062.28
2022-11-16T16:52:25.646Z,99070.63
2022-11-16T16:55:41.580Z,99068.75
2022-11-16T16:58:49.853Z,99058.66
2022-11-16T17:02:05.561Z,99056.97
2022-11-16T17:05:27.564Z,99056.63
2022-11-16T17:08:36.438Z,99059.03
2022-11-16T17:11:53.584Z,99059.62
2022-11-16T17:15:02.324Z,99053.69
2022-11-16T17:18:18.696Z,99055.72
2022-11-16T17:21:33.565Z,99053.06
2022-11-16T17:24:41.650Z,99041.41
2022-11-16T17:27:50.269Z,99048.50
2022-11-16T17:30:58.751Z,99052.56
2022-11-16T17:34:10.794Z,99045.03
2022-11-16T17:37:28.733Z,99040.22
2022-11-16T17:40:37.593Z,99042.38
2022-11-16T17:43:53.978Z,99037.81
2022-11-16T17:47:03.106Z,99035.63
2022-11-16T17:50:11.549Z,99037.53
2022-11-16T17:53:19.941Z,99041.13
2022-11-16T17:56:28.697Z,99039.09
2022-11-16T17:59:43.952Z,99036.91
2022-11-16T18:02:52.074Z,99040.69
2022-11-16T18:06:16.766Z,99033.28
2022-11-16T18:09:31.877Z,99039.53
2022-11-16T18:12:34.327Z,99037.66
2022-11-16T18:15:49.958Z,99029.16
2022-11-16T18:19:01.317Z,99028.38
2022-11-16T18:22:16.908Z,99035.22
2022-11-16T18:25:25.415Z,99033.66
2022-11-16T18:28:33.553Z,99030.38
2022-11-16T18:31:48.958Z,99028.47
2022-11-16T18:34:57.358Z,99023.47
2022-11-16T18:38:06.040Z,99022.34
2022-11-16T18:41:19.245Z,99024.06
2022-11-16T18:44:34.971Z,99031.00
2022-11-16T18:47:37.350Z,99023.47
2022-11-16T18:50:52.563Z,99031.00
2022-11-16T18:53:54.942Z,99031.00
2022-11-16T18:57:09.953Z,99023.47
2022-11-16T19:00:19.634Z,99021.28
2022-11-16T19:03:29.019Z,99016.72
2022-11-16T19:06:43.925Z,99016.72
2022-11-16T19:09:52.115Z,99014.97
2022-11-16T19:13:06.873Z,99008.03
2022-11-16T19:16:16.991Z,99008.22
2022-11-16T19:19:25.888Z,99013.25
2022-11-16T19:22:42.809Z,99013.56
2022-11-16T19:26:00.322Z,99015.72
2022-11-16T19:29:09.920Z,99021.38
2022-11-16T19:32:25.310Z,99012.22
2022-11-16T19:35:33.973Z,99008.47
2022-11-16T19:38:49.884Z,99006.41
2022-11-16T19:41:58.541Z,99011.72
2022-11-16T19:45:14.022Z,99007.78
2022-11-16T19:48:22.502Z,99002.75
2022-11-16T19:51:40.105Z,99006.72
2022-11-16T19:54:48.559Z,98998.38
2022-11-16T19:58:03.573Z,99008.28
2022-11-16T20:01:24.663Z,99000.75
2022-11-16T20:04:40.305Z,98999.66
2022-11-16T20:07:56.951Z,98996.81
2022-11-16T20:11:00.357Z,99000.69
2022-11-16T20:14:17.965Z,99000.84
2022-11-16T20:17:32.561Z,99007.12
2022-11-16T20:20:34.786Z,99011.09
2022-11-16T20:23:49.897Z,99009.50
2022-11-16T20:27:05.420Z,99007.94
2022-11-16T20:30:09.708Z,99012.78
2022-11-16T20:33:24.567Z,99010.13
2022-11-16T20:36:35.794Z,99002.59
2022-11-16T20:39:51.808Z,98994.87
2022-11-16T20:43:07.031Z,99000.88
2022-11-16T20:46:11.077Z,98989.72
2022-11-16T20:49:25.968Z,98987.34
2022-11-16T20:52:38.216Z,98987.53
2022-11-16T20:55:56.917Z,98980.00
2022-11-16T20:59:12.400Z,98990.69
2022-11-16T21:02:27.930Z,98981.88
2022-11-16T21:05:44.603Z,98987.22
2022-11-16T21:09:00.581Z,98984.25
2022-11-16T21:12:02.427Z,98995.44
2022-11-16T21:15:17.638Z,98993.22
2022-11-16T21:18:30.739Z,98986.31
2022-11-16T21:21:45.562Z,98986.78
2022-11-16T21:24:54.052Z,98983.16
2022-11-16T21:28:15.549Z,98984.12
2022-11-16T21:31:36.657Z,98973.44
2022-11-16T21:34:40.247Z,98970.91
2022-11-16T21:37:55.567Z,98966.66
2022-11-16T21:41:05.267Z,98967.94
2022-11-16T21:44:13.590Z,98964.16
2022-11-16T21:47:28.583Z,98969.47
2022-11-16T21:50:36.546Z,98960.72
2022-11-16T21:53:45.410Z,98958.81
2022-11-16T21:57:00.548Z,98947.34
2022-11-16T22:00:02.337Z,98941.22
2022-11-16T22:03:24.560Z,98939.34
2022-11-16T22:06:33.046Z,98939.34
2022-11-16T22:09:47.565Z,98939.94
2022-11-16T22:12:49.399Z,98943.56
2022-11-16T22:16:04.556Z,98927.06
2022-11-16T22:19:12.597Z,98927.88
2022-11-16T22:22:21.559Z,98928.19
2022-11-16T22:25:36.575Z,98947.97
2022-11-16T22:28:51.563Z,98955.97
2022-11-16T22:32:06.575Z,98963.81
2022-11-16T22:35:21.568Z,98967.25
2022-11-16T22:38:30.577Z,98961.91
2022-11-16T22:41:39.141Z,98956.75
2022-11-16T22:44:47.560Z,98956.75
2022-11-16T22:48:02.583Z,98946.38
2022-11-16T22:51:28.582Z,98963.97
2022-11-16T22:54:43.555Z,98966.16
2022-11-16T22:57:45.373Z,98963.03
2022-11-16T23:01:00.552Z,98962.22
2022-11-16T23:04:08.568Z,98957.06
2022-11-16T23:07:30.585Z,98951.72
2022-11-16T23:10:49.215Z,98955.50
2022-11-16T23:13:52.996Z,98958.28
2022-11-16T23:17:08.569Z,98950.75
2022-11-16T23:20:16.245Z,98949.66
2022-11-16T23:23:32.745Z,98938.78
2022-11-16T23:26:34.765Z,98936.47
2022-11-16T23:29:50.569Z,98935.41
2022-11-16T23:32:58.574Z,98940.69
2022-11-16T23:36:07.368Z,98941.47
2022-11-16T23:39:22.543Z,98939.59
2022-11-16T23:42:24.306Z,98940.69
2022-11-16T23:45:39.538Z,98932.50
2022-11-16T23:48:48.100Z,98944.44
2022-11-16T23:52:02.575Z,98945.41
2022-11-16T23:55:11.061Z,98941.66
2022-11-16T23:58:25.567Z,98938.69
